createdAt,value
2019-02-28T00:06:04.122Z,17.97
2019-02-28T00:21:11.673Z,16.80
2019-02-28T00:36:19.284Z,24.67
2019-02-28T00:51:25.975Z,15.97
2019-02-28T01:06:33.569Z,16.13
2019-02-28T01:21:40.064Z,13.60
2019-02-28T01:36:48.673Z,12.00
2019-02-28T01:51:54.549Z,10.17
2019-02-28T02:07:01.016Z,11.03
2019-02-28T02:22:09.408Z,10.00
2019-02-28T02:37:15.584Z,11.80
2019-02-28T02:52:25.935Z,10.47
2019-02-28T03:07:30.798Z,10.50
2019-02-28T03:22:36.998Z,9.30
2019-02-28T03:37:43.505Z,8.60
2019-02-28T03:52:49.722Z,11.63
2019-02-28T04:07:55.934Z,8.40
2019-02-28T04:23:02.132Z,10.30
2019-02-28T04:38:08.610Z,13.57
2019-02-28T04:53:14.811Z,12.83
2019-02-28T05:08:21.260Z,11.33
2019-02-28T05:23:27.728Z,16.67
2019-02-28T05:38:33.981Z,18.90
2019-02-28T05:53:41.341Z,15.00
2019-02-28T06:08:48.074Z,19.30
2019-02-28T06:23:55.787Z,18.00
2019-02-28T06:39:02.240Z,12.33
2019-02-28T06:54:10.580Z,21.67
2019-02-28T07:09:17.092Z,24.10
2019-02-28T07:24:23.277Z,13.87
2019-02-28T07:39:29.533Z,21.23
2019-02-28T07:54:35.974Z,19.63
2019-02-28T08:09:42.246Z,14.60
2019-02-28T08:24:48.454Z,30.43
2019-02-28T08:39:55.265Z,15.27
2019-02-28T08:55:02.867Z,26.47
2019-02-28T09:10:12.576Z,29.67
2019-02-28T09:25:21.440Z,30.97
2019-02-28T09:40:29.432Z,24.37
2019-02-28T09:55:35.393Z,35.67
2019-02-28T10:10:41.985Z,32.80
2019-02-28T10:25:48.218Z,30.77
2019-02-28T10:40:54.471Z,33.23
2019-02-28T10:56:00.934Z,23.13
2019-02-28T11:11:07.341Z,30.10
2019-02-28T11:26:15.260Z,27.13
2019-02-28T11:41:21.752Z,21.87
2019-02-28T11:56:28.817Z,23.70
2019-02-28T12:11:36.487Z,27.20
2019-02-28T12:26:43.742Z,27.93
2019-02-28T12:41:49.974Z,29.03
2019-02-28T12:56:56.186Z,21.10
2019-02-28T13:12:02.682Z,25.67
2019-02-28T13:27:11.559Z,26.40
2019-02-28T13:42:18.031Z,34.93
2019-02-28T13:57:24.499Z,48.40
2019-02-28T14:12:30.988Z,31.73
2019-02-28T14:27:37.210Z,33.33
2019-02-28T14:42:44.356Z,42.03
2019-02-28T14:57:50.885Z,17.37
2019-02-28T15:12:58.705Z,12.87
2019-02-28T15:28:05.423Z,16.70
2019-02-28T15:43:17.164Z,14.67
2019-02-28T15:58:20.037Z,18.80
2019-02-28T16:13:26.613Z,18.13
2019-02-28T16:28:32.883Z,19.37
2019-02-28T16:43:39.065Z,18.90
2019-02-28T16:58:45.510Z,18.63
2019-02-28T17:14:00.363Z,24.77
2019-02-28T17:29:15.189Z,20.50
2019-02-28T17:44:23.764Z,20.60
2019-02-28T17:59:41.890Z,23.13
2019-02-28T18:14:58.408Z,21.03
2019-02-28T18:30:23.056Z,14.83
2019-02-28T18:45:29.594Z,14.53
2019-02-28T19:00:35.916Z,20.67
2019-02-28T19:15:42.428Z,21.43
2019-02-28T19:30:48.698Z,18.27
2019-02-28T19:45:55.100Z,16.27
2019-02-28T20:01:01.379Z,16.23
2019-02-28T20:16:08.172Z,12.30
2019-02-28T20:31:16.066Z,22.83
2019-02-28T20:46:24.437Z,25.80
2019-02-28T21:01:30.752Z,20.57
2019-02-28T21:16:48.210Z,21.63
2019-02-28T21:31:55.715Z,21.70
2019-02-28T21:47:02.248Z,17.23
2019-02-28T22:02:08.716Z,37.80
2019-02-28T22:17:14.989Z,48.73
2019-02-28T22:32:39.300Z,20.00
2019-02-28T22:47:45.851Z,17.87
2019-02-28T23:02:52.336Z,23.70
2019-02-28T23:17:58.541Z,19.67
2019-02-28T23:33:06.445Z,34.60
2019-02-28T23:48:12.897Z,142.83
